This is the latest recevied weather packets stored in our database for station/object YO8RXT-3. If no packets are shown the sender has not sent any weather packets the latest 10 day(s).
| Time | Temp. | Humidity | Pressure | Rain* | Wind** | Luminosity | Snow |
|---|---|---|---|---|---|---|---|
| 1777647903 | 12.22° C | 30% | 1023 hPa | - | - | - | - |
| 1777646102 | 12.78° C | 28% | 1023 hPa | - | - | - | - |
| 1777644303 | 12.22° C | 30% | 1024 hPa | - | - | - | - |
| 1777642503 | 12.22° C | 33% | 1024 hPa | - | - | - | - |
| 1777640703 | 12.22° C | 30% | 1024 hPa | - | - | - | - |
| 1777638903 | 12.22° C | 30% | 1024 hPa | - | - | - | - |
| 1777637102 | 12.22° C | - | - | - | - | - | - |
| 1777635303 | 12.22° C | 33% | 1025 hPa | - | - | - | - |
| 1777633502 | 12.22° C | 28% | 1025 hPa | - | - | - | - |
| 1777631703 | 11.11° C | 32% | 1025 hPa | - | - | - | - |
| 1777629903 | 11.11° C | 32% | 1025 hPa | - | - | - | - |
| 1777628102 | 10° C | 35% | 1026 hPa | - | - | - | - |
| 1777626303 | 10° C | 32% | 1026 hPa | - | - | - | - |
| 1777624503 | 8.89° C | 32% | 1026 hPa | - | - | - | - |
| 1777622703 | 10° C | 32% | 1026 hPa | - | - | - | - |
| 1777620903 | 8.89° C | 40% | 1026 hPa | - | - | - | - |
| 1777619103 | 7.78° C | 46% | 1026 hPa | - | - | - | - |
| 1777617302 | 6.11° C | - | - | - | - | - | - |
| 1777615502 | 5° C | 61% | 1026 hPa | - | - | - | - |
| 1777613702 | 5° C | 57% | 1026 hPa | - | - | - | - |
| 1777611903 | 3.89° C | 65% | 1026 hPa | - | - | - | - |
| 1777610102 | 3.89° C | 65% | 1026 hPa | - | - | - | - |
| 1777608303 | 2.78° C | 70% | 1026 hPa | - | - | - | - |
| 1777606502 | 2.78° C | 65% | 1026 hPa | - | - | - | - |
| 1777604703 | 2.78° C | 65% | 1026 hPa | - | - | - | - |
* Rain since midnight (hover to see other rain measurements)
** Current wind speed in m/s (hover to see current wind gust speed)